Time;durP1;ratioP1;P1;durP2;ratioP2;P2;SDS_P1;SDS_P2;PMS_P1;PMS_P2;Temp;Humidity;BMP_temperature;BMP_pressure;BME280_temperature;BME280_humidity;BME280_pressure;Samples;Min_cycle;Max_cycle;Signal;HPM_P1;HPM_P2
2022/12/31 00:01:30;;;;;;;49.60;21.42;;;;;;;9.41;100.00;101779.75;5053271;28;20911;-65
2022/12/31 00:03:59;;;;;;;50.40;22.38;;;;;;;9.33;100.00;101771.94;5052199;28;20484;-66
2022/12/31 00:06:30;;;;;;;43.97;21.15;;;;;;;9.44;100.00;101782.00;5052203;28;20049;-65
2022/12/31 00:09:01;;;;;;;46.25;21.48;;;;;;;9.38;100.00;101781.06;5052647;28;20048;-66
2022/12/31 00:11:30;;;;;;;52.92;22.10;;;;;;;9.31;100.00;101783.09;5052147;28;20052;-65
2022/12/31 00:13:59;;;;;;;47.55;23.90;;;;;;;9.25;100.00;101773.16;5050650;28;20068;-66
2022/12/31 00:16:30;;;;;;;47.78;21.08;;;;;;;9.26;100.00;101781.09;5052373;28;20045;-65
2022/12/31 00:18:59;;;;;;;47.92;20.65;;;;;;;9.35;100.00;101781.56;5051792;28;20049;-66
2022/12/31 00:21:30;;;;;;;47.05;22.83;;;;;;;9.28;100.00;101783.56;5051849;28;20045;-66
2022/12/31 00:23:59;;;;;;;49.95;23.35;;;;;;;9.32;100.00;101786.66;5050820;28;20041;-66
2022/12/31 00:26:29;;;;;;;49.95;22.73;;;;;;;9.32;100.00;101770.25;5049950;28;20492;-65
2022/12/31 00:28:58;;;;;;;52.65;22.02;;;;;;;9.19;100.00;101776.84;5051341;28;20064;-66
2022/12/31 00:31:34;;;;;;;47.50;21.30;;;;;;;9.18;100.00;101769.72;5051806;28;20053;-66
2022/12/31 00:34:02;;;;;;;49.20;21.67;;;;;;;9.24;100.00;101766.03;5051996;28;20053;-66
2022/12/31 00:36:33;;;;;;;43.58;19.65;;;;;;;9.20;100.00;101773.03;5051928;28;20485;-66
2022/12/31 00:39:03;;;;;;;52.65;21.33;;;;;;;9.19;100.00;101776.84;5051716;28;20049;-66
2022/12/31 00:41:31;;;;;;;50.53;22.38;;;;;;;9.13;100.00;101778.63;5051790;28;20055;-66
2022/12/31 00:43:59;;;;;;;48.38;22.08;;;;;;;9.01;100.00;101770.47;5051566;28;20049;-66
2022/12/31 00:46:27;;;;;;;49.05;22.25;;;;;;;9.03;100.00;101770.25;5051524;28;20064;-66
2022/12/31 00:48:55;;;;;;;52.00;20.75;;;;;;;8.94;100.00;101776.03;5051138;28;20057;-66
2022/12/31 00:51:26;;;;;;;47.22;21.30;;;;;;;8.87;100.00;101775.34;5051358;28;20127;-65
2022/12/31 00:53:55;;;;;;;47.47;20.27;;;;;;;8.91;100.00;101781.16;5051565;28;20060;-66
2022/12/31 00:56:26;;;;;;;46.13;23.13;;;;;;;8.85;100.00;101777.50;5051622;28;20041;-65
2022/12/31 00:58:54;;;;;;;54.85;22.23;;;;;;;9.02;100.00;101788.50;5051621;28;20056;-66
2022/12/31 01:01:29;;;;;;;49.53;22.77;;;;;;;8.95;100.00;101777.69;5051769;28;20056;-66
2022/12/31 01:04:06;;;;;;;52.97;20.63;;;;;;;8.98;100.00;101781.84;5051436;28;20061;-66
2022/12/31 01:06:34;;;;;;;52.08;20.92;;;;;;;8.84;100.00;101776.66;5050243;28;20075;-66
2022/12/31 01:09:03;;;;;;;53.28;23.33;;;;;;;8.71;100.00;101776.91;5051147;28;20056;-66
2022/12/31 01:11:31;;;;;;;51.33;22.83;;;;;;;8.66;100.00;101791.25;5051393;28;20052;-66
2022/12/31 01:14:01;;;;;;;53.17;22.95;;;;;;;8.66;100.00;101791.25;5051677;28;20400;-65
2022/12/31 01:16:32;;;;;;;47.28;22.52;;;;;;;8.54;100.00;101793.13;5051894;28;20060;-66
2022/12/31 01:19:03;;;;;;;49.50;22.90;;;;;;;8.49;100.00;101802.00;5051609;28;20415;-66
2022/12/31 01:21:33;;;;;;;53.10;22.58;;;;;;;8.48;100.00;101811.25;5050969;28;20076;-66
2022/12/31 01:24:00;;;;;;;46.08;22.67;;;;;;;8.42;100.00;101817.66;5049112;28;20045;-66
2022/12/31 01:26:29;;;;;;;48.55;21.90;;;;;;;8.29;100.00;101819.53;5050008;28;20492;-66
2022/12/31 01:28:57;;;;;;;43.45;20.92;;;;;;;8.23;100.00;101823.19;5050066;28;20049;-66
2022/12/31 01:31:25;;;;;;;42.92;21.42;;;;;;;8.12;100.00;101813.91;5050513;28;20045;-66
2022/12/31 01:33:54;;;;;;;46.78;21.88;;;;;;;8.07;100.00;101816.53;5049968;28;20064;-66
2022/12/31 01:36:27;;;;;;;40.50;19.75;;;;;;;8.05;100.00;101818.63;5051143;28;20048;-66
2022/12/31 01:38:56;;;;;;;33.45;18.05;;;;;;;8.00;100.00;101826.66;5052804;28;20480;-66
2022/12/31 01:41:29;;;;;;;36.55;17.70;;;;;;;7.83;100.00;101837.41;5054831;28;20388;-65
2022/12/31 01:44:21;;;;;;;31.65;16.55;;;;;;;7.68;100.00;101833.19;5054629;28;20052;-66
2022/12/31 01:46:59;;;;;;;34.15;18.05;;;;;;;7.66;100.00;101822.53;5054413;28;20076;-66
2022/12/31 01:49:33;;;;;;;36.15;18.15;;;;;;;7.73;100.00;101843.41;5041398;28;20059;-66
2022/12/31 01:52:19;;;;;;;;;;;;;;;7.88;100.00;101840.28;5055286;28;20060;-66
2022/12/31 01:55:01;;;;;;;45.17;21.98;;;;;;;7.89;100.00;101847.38;5054720;28;20346;-66
2022/12/31 01:57:30;;;;;;;47.45;21.05;;;;;;;8.02;100.00;101847.19;5054359;28;20369;-65
2022/12/31 02:00:00;;;;;;;48.67;21.80;;;;;;;8.02;100.00;101852.63;5053543;28;20404;-66
2022/12/31 02:02:31;;;;;;;48.42;22.45;;;;;;;8.01;100.00;101845.53;5053444;28;20057;-66
2022/12/31 02:05:04;;;;;;;56.35;24.08;;;;;;;8.26;100.00;101862.81;5053385;28;20385;-67
2022/12/31 02:07:32;;;;;;;52.42;23.95;;;;;;;8.33;100.00;101858.91;5053631;28;20045;-66
2022/12/31 02:10:00;;;;;;;53.25;22.63;;;;;;;8.33;100.00;101855.34;5053987;28;20037;-66
2022/12/31 02:12:28;;;;;;;47.38;22.70;;;;;;;8.36;100.00;101859.50;5054227;28;20496;-66
2022/12/31 02:14:56;;;;;;;55.53;20.52;;;;;;;8.36;100.00;101873.97;5053837;28;20056;-66
2022/12/31 02:17:38;;;;;;;52.05;20.65;;;;;;;8.41;100.00;101865.09;5054143;28;20053;-66
2022/12/31 02:20:08;;;;;;;59.72;23.77;;;;;;;8.37;100.00;101872.94;5053934;28;20484;-66
2022/12/31 02:22:36;;;;;;;57.55;22.70;;;;;;;8.42;100.00;101880.41;5053475;28;20049;-66
2022/12/31 02:25:29;;;;;;;48.42;21.58;;;;;;;8.52;100.00;101875.25;5053624;28;20070;-66
2022/12/31 02:28:32;;;;;;;48.88;21.65;;;;;;;8.48;100.00;101868.56;5053898;28;20254;-66
2022/12/31 02:31:10;;;;;;;46.10;20.95;;;;;;;8.46;100.00;101873.44;5053616;28;20056;-66
2022/12/31 02:33:41;;;;;;;49.70;20.98;;;;;;;8.65;100.00;101882.38;5053969;28;20056;-66
2022/12/31 02:36:17;;;;;;;55.75;22.10;;;;;;;8.71;100.00;101881.44;5054007;28;20061;-66
2022/12/31 02:38:47;;;;;;;48.10;20.77;;;;;;;8.62;100.00;101873.81;5053726;28;20403;-66
2022/12/31 02:44:32;;;;;;;43.13;18.80;;;;;;;8.77;100.00;101879.66;5052464;28;20053;-66
2022/12/31 02:47:24;;;;;;;48.67;21.45;;;;;;;8.72;100.00;101863.16;5052421;28;20041;-66
2022/12/31 02:50:10;;;;;;;53.90;22.23;;;;;;;8.77;100.00;101882.41;5052016;28;20041;-66
2022/12/31 02:53:05;;;;;;;51.83;21.17;;;;;;;8.76;100.00;101890.81;5053434;28;20049;-66
2022/12/31 02:55:48;;;;;;;45.25;19.25;;;;;;;8.83;100.00;101892.38;5053753;28;20056;-66
2022/12/31 03:04:32;;;;;;;42.95;17.73;;;;;;;8.38;100.00;101893.69;5052836;28;20510;-66
2022/12/31 03:07:12;;;;;;;40.03;18.23;;;;;;;8.52;100.00;101904.41;5052274;28;20041;-66
2022/12/31 03:09:40;;;;;;;46.42;21.58;;;;;;;8.42;100.00;101907.69;5051143;28;20404;-66
2022/12/31 03:14:57;;;;;;;44.42;20.02;;;;;;;8.57;100.00;101899.91;5052058;28;20509;-66
2022/12/31 03:17:25;;;;;;;44.65;18.98;;;;;;;8.49;100.00;101897.50;5052729;28;20037;-66
2022/12/31 03:22:42;;;;;;;46.03;20.55;;;;;;;8.53;100.00;101885.09;5053126;28;20403;-66
2022/12/31 03:28:24;;;;;;;51.78;21.67;;;;;;;8.56;100.00;101898.25;4998915;28;20058;-66
2022/12/31 03:30:55;;;;;;;46.67;20.13;;;;;;;8.60;100.00;101888.53;4990406;28;20098;-66
2022/12/31 03:33:24;;;;;;;52.70;20.85;;;;;;;8.60;100.00;101888.53;5012394;28;20057;-66
2022/12/31 03:35:52;;;;;;;48.65;21.67;;;;;;;8.49;100.00;101892.03;5032696;28;20041;-66
2022/12/31 03:38:20;;;;;;;50.60;21.05;;;;;;;8.55;100.00;101884.88;5043951;28;20060;-66
2022/12/31 03:40:51;;;;;;;50.17;19.15;;;;;;;8.45;100.00;101890.84;5052505;28;20052;-66
2022/12/31 03:43:19;;;;;;;52.85;20.60;;;;;;;8.50;100.00;101885.50;5052472;28;20052;-66
2022/12/31 03:45:52;;;;;;;54.08;21.52;;;;;;;8.59;100.00;101881.44;5051991;28;20053;-66
2022/12/31 03:48:22;;;;;;;52.90;21.48;;;;;;;8.47;100.00;101888.72;5051388;28;20102;-66
2022/12/31 03:50:50;;;;;;;48.33;20.75;;;;;;;8.47;100.00;101891.44;5051412;28;20060;-66
2022/12/31 03:53:18;;;;;;;49.35;19.45;;;;;;;8.57;100.00;101877.25;5051335;28;20424;-66
2022/12/31 03:55:51;;;;;;;48.33;19.75;;;;;;;8.55;100.00;101872.03;5051947;28;20396;-66
2022/12/31 03:58:20;;;;;;;53.08;22.10;;;;;;;8.69;100.00;101877.28;5052201;28;20056;-66
2022/12/31 04:00:48;;;;;;;48.55;20.08;;;;;;;8.55;100.00;101880.22;5052236;28;20061;-66
2022/12/31 04:03:16;;;;;;;47.08;19.20;;;;;;;8.60;100.00;101885.81;5052263;28;20041;-66
2022/12/31 04:05:51;;;;;;;43.67;20.27;;;;;;;8.51;100.00;101889.91;5051849;28;20052;-66
2022/12/31 04:08:19;;;;;;;47.20;20.23;;;;;;;8.39;100.00;101892.63;5051846;28;20053;-66
2022/12/31 04:10:47;;;;;;;55.83;21.08;;;;;;;8.31;100.00;101893.75;5051700;28;20056;-66
2022/12/31 04:13:15;;;;;;;52.20;20.30;;;;;;;8.34;100.00;101906.13;5051445;28;20048;-66
2022/12/31 04:15:43;;;;;;;46.17;20.73;;;;;;;8.26;100.00;101907.25;5051946;28;20049;-66
2022/12/31 04:18:12;;;;;;;45.38;19.75;;;;;;;8.44;100.00;101903.66;5051735;28;20044;-66
2022/12/31 04:20:39;;;;;;;55.53;20.85;;;;;;;8.50;100.00;101890.97;5051683;28;20044;-66
2022/12/31 04:23:07;;;;;;;52.03;21.92;;;;;;;8.70;100.00;101903.53;5047149;28;20049;-66
2022/12/31 04:25:35;;;;;;;49.33;20.55;;;;;;;8.74;100.00;101901.97;5032017;28;20045;-66
2022/12/31 04:28:03;;;;;;;48.88;21.73;;;;;;;8.45;100.00;101907.19;5038787;28;20052;-67
2022/12/31 04:30:31;;;;;;;41.42;20.23;;;;;;;8.19;100.00;101909.25;5049712;28;20510;-66
2022/12/31 04:32:59;;;;;;;42.78;20.45;;;;;;;8.29;100.00;101909.53;5051215;28;20059;-66
2022/12/31 04:35:27;;;;;;;43.42;20.25;;;;;;;8.52;100.00;101912.59;5047770;28;20044;-66
2022/12/31 04:37:54;;;;;;;42.15;18.70;;;;;;;8.62;100.00;101912.03;5029229;28;20045;-66
2022/12/31 04:40:22;;;;;;;49.13;19.80;;;;;;;8.66;100.00;101916.78;5032590;28;20057;-66
2022/12/31 04:42:50;;;;;;;45.60;20.15;;;;;;;8.59;100.00;101925.09;5031733;28;20041;-66
2022/12/31 04:45:18;;;;;;;43.05;18.00;;;;;;;8.74;100.00;101934.72;5032182;28;20753;-66
2022/12/31 04:47:46;;;;;;;46.28;21.15;;;;;;;8.76;100.00;101932.59;5037206;28;20041;-66
2022/12/31 04:50:14;;;;;;;48.97;21.55;;;;;;;8.82;100.00;101939.84;5051676;28;20049;-66
2022/12/31 04:52:42;;;;;;;45.65;17.90;;;;;;;8.82;100.00;101942.59;5049733;28;20052;-66
2022/12/31 04:55:10;;;;;;;41.83;18.52;;;;;;;8.78;100.00;101951.44;5050492;28;20060;-66
2022/12/31 04:57:40;;;;;;;45.40;19.60;;;;;;;8.87;100.00;101961.81;5050939;28;20048;-66
2022/12/31 05:00:08;;;;;;;43.33;19.88;;;;;;;8.93;100.00;101970.13;5050439;28;20056;-66
2022/12/31 05:02:36;;;;;;;43.65;20.23;;;;;;;8.97;100.00;101974.91;5050428;28;20052;-66
2022/12/31 05:05:04;;;;;;;42.72;20.30;;;;;;;9.16;100.00;101976.69;5050456;28;20520;-66
2022/12/31 05:07:32;;;;;;;44.70;20.10;;;;;;;9.07;100.00;101977.06;5051055;28;20384;-66
2022/12/31 05:10:00;;;;;;;43.42;19.88;;;;;;;9.05;100.00;101975.63;5051346;28;20392;-66
2022/12/31 05:12:28;;;;;;;43.15;20.48;;;;;;;9.08;100.00;101992.34;5051558;28;20045;-66
2022/12/31 05:14:56;;;;;;;43.05;18.15;;;;;;;8.93;100.00;102000.16;5054616;28;20468;-66
2022/12/31 05:17:23;;;;;;;40.75;20.27;;;;;;;9.06;100.00;101990.94;5054778;28;20060;-66
2022/12/31 05:19:51;;;;;;;46.65;19.00;;;;;;;9.06;100.00;101989.03;5053626;28;20400;-66
2022/12/31 05:22:28;;;;;;;38.47;18.08;;;;;;;9.04;100.00;101999.34;5055063;28;20061;-66
2022/12/31 05:24:57;;;;;;;41.47;18.77;;;;;;;8.94;100.00;101988.19;5054958;28;20527;-66
2022/12/31 05:27:29;;;;;;;39.92;20.15;;;;;;;8.97;100.00;101993.16;5054958;28;20041;-66
2022/12/31 05:29:58;;;;;;;44.53;19.10;;;;;;;9.00;100.00;101995.44;5054256;28;20049;-66
2022/12/31 05:32:27;;;;;;;43.05;19.20;;;;;;;8.94;100.00;101991.72;5054908;28;20053;-66
2022/12/31 05:34:56;;;;;;;39.38;18.60;;;;;;;9.01;100.00;102006.09;5053958;28;20045;-66
2022/12/31 05:37:28;;;;;;;42.28;18.38;;;;;;;8.93;100.00;102008.34;5053666;28;20476;-66
2022/12/31 05:39:56;;;;;;;32.50;16.27;;;;;;;8.85;100.00;102013.06;5053807;28;20099;-66
2022/12/31 05:42:25;;;;;;;35.33;16.50;;;;;;;8.83;100.00;102003.47;5054138;28;20044;-66
2022/12/31 05:44:53;;;;;;;35.08;16.75;;;;;;;8.76;100.00;102019.94;5054875;28;20041;-66
2022/12/31 05:47:21;;;;;;;39.95;17.45;;;;;;;8.79;100.00;102027.66;5054341;28;20048;-66
2022/12/31 05:49:49;;;;;;;34.70;15.68;;;;;;;8.71;100.00;102028.81;5054416;28;20048;-66
2022/12/31 05:52:17;;;;;;;36.15;16.95;;;;;;;8.73;100.00;102036.78;5054445;28;20049;-66
2022/12/31 05:54:45;;;;;;;42.47;17.80;;;;;;;8.74;100.00;102027.53;5053280;28;20041;-66
2022/12/31 05:57:13;;;;;;;38.50;17.38;;;;;;;8.74;100.00;102033.81;5051420;28;20060;-66
2022/12/31 05:59:41;;;;;;;33.28;16.90;;;;;;;8.75;100.00;102034.63;5053412;28;20053;-66
2022/12/31 06:02:09;;;;;;;42.67;18.50;;;;;;;8.72;100.00;102029.66;5053676;28;20049;-72
2022/12/31 06:04:37;;;;;;;39.17;16.92;;;;;;;8.58;100.00;102032.56;5052743;28;20045;-67
2022/12/31 06:07:05;;;;;;;35.30;17.63;;;;;;;8.59;100.00;102034.22;5050558;28;20053;-66
2022/12/31 06:09:33;;;;;;;32.03;15.57;;;;;;;8.55;100.00;102027.56;5052624;28;20060;-66
2022/12/31 06:12:01;;;;;;;38.00;17.85;;;;;;;8.60;100.00;102032.31;5053509;28;20064;-66
2022/12/31 06:14:29;;;;;;;39.25;19.83;;;;;;;8.69;100.00;102039.13;5053255;28;20388;-66
2022/12/31 06:16:57;;;;;;;38.42;17.67;;;;;;;8.82;100.00;102035.41;5053855;28;20052;-66
2022/12/31 06:19:25;;;;;;;41.25;18.95;;;;;;;8.60;100.00;102044.09;5054234;28;20056;-66
2022/12/31 06:21:52;;;;;;;37.35;17.50;;;;;;;8.58;100.00;102043.50;5053419;28;20053;-66
2022/12/31 06:24:20;;;;;;;44.15;16.55;;;;;;;8.63;100.00;102058.31;5053043;28;20384;-66
2022/12/31 06:26:48;;;;;;;35.75;15.77;;;;;;;8.59;100.00;102053.34;5053109;28;20052;-66
2022/12/31 06:29:16;;;;;;;36.03;17.70;;;;;;;8.64;100.00;102060.81;5053804;28;20037;-66
2022/12/31 06:31:46;;;;;;;37.95;17.63;;;;;;;8.58;100.00;102067.22;5035774;28;20480;-66
2022/12/31 06:34:14;;;;;;;33.20;16.83;;;;;;;8.65;100.00;102067.94;5053678;28;20057;-66
2022/12/31 06:36:42;;;;;;;34.05;17.10;;;;;;;8.80;100.00;102064.00;5053233;28;20053;-66
2022/12/31 06:39:10;;;;;;;42.03;17.60;;;;;;;8.83;100.00;102058.06;5054043;28;20488;-66
2022/12/31 06:41:38;;;;;;;39.42;18.02;;;;;;;8.86;100.00;102066.59;5053425;28;20072;-66
2022/12/31 06:44:06;;;;;;;39.85;17.98;;;;;;;8.77;100.00;102070.75;5053590;28;20053;-66
2022/12/31 06:46:33;;;;;;;38.92;17.08;;;;;;;8.71;100.00;102077.94;5052656;28;20049;-66
2022/12/31 06:49:02;;;;;;;41.75;17.27;;;;;;;8.82;100.00;102078.22;5052745;28;20064;-66
2022/12/31 06:51:29;;;;;;;32.58;16.95;;;;;;;8.83;100.00;102080.72;5052235;28;20056;-66
2022/12/31 06:53:57;;;;;;;37.47;17.30;;;;;;;8.73;100.00;102092.22;5050062;28;20037;-66
2022/12/31 06:56:28;;;;;;;36.28;17.20;;;;;;;8.76;100.00;102090.91;5051876;28;20075;-66
2022/12/31 06:59:02;;;;;;;35.67;16.60;;;;;;;8.79;100.00;102097.81;5053124;28;20064;-66
2022/12/31 07:01:47;;;;;;;37.10;17.48;;;;;;;8.80;100.00;102100.28;5053178;28;20045;-69
2022/12/31 07:05:09;;;;;;;40.95;17.85;;;;;;;8.73;100.00;102103.13;5034124;28;20052;-68
2022/12/31 07:07:51;;;;;;;37.67;17.63;;;;;;;8.71;100.00;102110.69;5028996;28;20496;-69
2022/12/31 07:10:26;;;;;;;39.67;18.73;;;;;;;8.66;100.00;102117.91;5052847;28;20045;-69
2022/12/31 07:13:30;;;;;;;40.72;19.00;;;;;;;8.81;100.00;102112.88;5052629;28;20403;-68
2022/12/31 07:16:07;;;;;;;32.35;16.70;;;;;;;8.92;100.00;102115.91;5052443;28;20053;-69
2022/12/31 07:18:45;;;;;;;37.83;17.42;;;;;;;8.92;100.00;102115.91;5052901;28;20062;-68
2022/12/31 07:21:17;;;;;;;34.10;16.50;;;;;;;8.84;100.00;102136.16;5052356;28;20052;-68
2022/12/31 07:23:45;;;;;;;39.78;16.50;;;;;;;8.86;100.00;102134.84;5051766;28;20052;-69
2022/12/31 07:26:34;;;;;;;39.72;18.80;;;;;;;9.01;100.00;102141.81;5051370;28;20045;-68
2022/12/31 07:29:26;;;;;;;32.50;16.80;;;;;;;8.97;100.00;102143.34;5035038;28;20046;-68
2022/12/31 07:32:08;;;;;;;33.95;16.15;;;;;;;9.01;100.00;102158.22;5082560;28;20049;-69
2022/12/31 07:34:51;;;;;;;32.30;16.98;;;;;;;8.92;100.00;102145.94;5052480;28;20041;-68
2022/12/31 07:37:43;;;;;;;36.78;17.23;;;;;;;8.99;100.00;102149.41;5051047;28;20396;-69
2022/12/31 07:40:51;;;;;;;33.95;16.75;;;;;;;8.95;100.00;102159.13;5050040;28;20052;-69
2022/12/31 07:43:57;;;;;;;32.88;15.93;;;;;;;8.86;100.00;102164.88;5030098;28;20460;-69
2022/12/31 07:46:53;;;;;;;37.67;17.88;;;;;;;9.11;100.00;102163.97;4974899;28;20090;-69
2022/12/31 07:49:22;;;;;;;31.90;16.45;;;;;;;9.12;100.00;102164.78;5001838;28;20057;-70
2022/12/31 07:51:54;;;;;;;41.55;16.73;;;;;;;9.17;100.00;102158.63;5038754;28;20052;-68
2022/12/31 07:54:22;;;;;;;38.35;16.35;;;;;;;9.26;100.00;102162.69;5050882;28;20045;-68
2022/12/31 07:56:51;;;;;;;32.05;16.77;;;;;;;9.32;100.00;102169.13;5051975;28;20392;-68
2022/12/31 07:59:38;;;;;;;40.90;17.80;;;;;;;9.25;100.00;102170.06;5048736;28;20151;-68
2022/12/31 08:02:14;;;;;;;31.20;16.00;;;;;;;9.24;100.00;102175.78;5050617;28;20041;-68
2022/12/31 08:04:48;;;;;;;39.42;16.92;;;;;;;9.40;100.00;102175.09;5051053;28;20400;-68
2022/12/31 08:07:54;;;;;;;37.10;17.27;;;;;;;9.47;100.00;102187.81;5051193;28;20049;-68
2022/12/31 08:10:47;;;;;;;35.95;17.00;;;;;;;9.65;100.00;102184.19;5032305;28;20052;-68
2022/12/31 08:13:16;;;;;;;36.35;16.08;;;;;;;9.75;100.00;102191.81;5050264;28;20060;-68
2022/12/31 08:15:44;;;;;;;36.10;18.25;;;;;;;9.61;100.00;102192.03;5051671;28;20067;-68
2022/12/31 08:18:13;;;;;;;34.88;16.30;;;;;;;9.66;100.00;102197.66;5051497;28;20053;-68
2022/12/31 08:20:57;;;;;;;32.55;16.80;;;;;;;9.66;100.00;102202.25;5051550;28;20037;-68
2022/12/31 08:23:53;;;;;;;39.42;19.00;;;;;;;9.67;100.00;102210.25;5050225;28;20049;-68
2022/12/31 08:26:41;;;;;;;35.17;16.95;;;;;;;9.62;100.00;102212.84;5051869;28;20068;-68
2022/12/31 08:29:22;;;;;;;39.25;17.98;;;;;;;9.55;100.00;102212.09;5037272;28;20587;-68
2022/12/31 08:31:59;;;;;;;34.05;17.75;;;;;;;9.73;100.00;102210.38;5038939;28;20045;-69
2022/12/31 08:35:05;;;;;;;42.40;18.35;;;;;;;9.76;100.00;102215.34;5050180;28;20068;-68
2022/12/31 08:37:41;;;;;;;35.78;17.55;;;;;;;9.76;100.00;102212.63;5047236;28;20053;-68
2022/12/31 08:40:26;;;;;;;43.10;17.05;;;;;;;9.44;100.00;102215.63;5050475;28;20049;-68
2022/12/31 08:42:59;;;;;;;;;;;;;;;9.57;100.00;102218.16;5035400;28;20041;-68
2022/12/31 08:45:40;;;;;;;36.85;16.67;;;;;;;9.47;100.00;102220.63;5029378;28;19932;-69
2022/12/31 08:48:39;;;;;;;35.75;17.38;;;;;;;9.38;100.00;102226.41;5030143;28;20037;-69
2022/12/31 08:51:16;;;;;;;42.63;18.77;;;;;;;9.55;100.00;102228.50;5034725;28;20844;-70
2022/12/31 08:53:45;;;;;;;32.40;16.75;;;;;;;9.40;100.00;102227.00;5053373;28;20045;-69
2022/12/31 08:56:21;;;;;;;40.50;18.90;;;;;;;9.76;100.00;102223.56;5051011;28;20044;-69
2022/12/31 08:59:23;;;;;;;38.00;19.05;;;;;;;9.84;100.00;102233.34;5051861;28;20041;-69
2022/12/31 09:02:17;;;;;;;37.97;19.20;;;;;;;9.82;100.00;102241.75;5053012;28;20049;-69
2022/12/31 09:04:54;;;;;;;37.88;17.50;;;;;;;9.78;100.00;102237.84;5049949;28;20041;-69
2022/12/31 09:07:36;;;;;;;39.38;17.98;;;;;;;9.75;100.00;102243.78;5052513;28;20495;-69
2022/12/31 09:10:15;;;;;;;38.55;18.27;;;;;;;9.94;100.00;102241.81;5054787;28;20056;-69
2022/12/31 09:13:24;;;;;;;38.22;17.27;;;;;;;10.09;100.00;102255.03;5053749;28;20399;-69
2022/12/31 09:16:17;;;;;;;35.78;17.65;;;;;;;10.16;100.00;102244.00;5054786;28;20044;-69
2022/12/31 09:18:45;;;;;;;42.05;19.63;;;;;;;10.20;100.00;102239.69;5052974;28;20045;-69
2022/12/31 09:21:15;;;;;;;34.47;17.50;;;;;;;10.21;100.00;102244.09;5053567;28;20043;-69
2022/12/31 09:23:43;;;;;;;39.40;18.80;;;;;;;10.26;100.00;102248.88;5055127;28;20041;-69
2022/12/31 09:26:29;;;;;;;37.28;17.05;;;;;;;10.19;100.00;102248.97;5054339;28;20044;-68
2022/12/31 09:29:22;;;;;;;40.63;18.15;;;;;;;10.32;100.00;102247.94;5054915;28;20037;-68
2022/12/31 09:32:21;;;;;;;42.70;18.80;;;;;;;10.35;100.00;102258.38;5053040;28;20515;-68
2022/12/31 09:35:06;;;;;;;44.47;19.35;;;;;;;10.04;100.00;102263.09;5053914;28;20045;-67
2022/12/31 09:37:36;;;;;;;;;;;;;;;9.98;100.00;102253.09;5053875;28;20060;-68
2022/12/31 09:40:51;;;;;;;39.90;17.08;;;;;;;10.08;100.00;102250.63;5053090;28;20273;-68
2022/12/31 09:43:38;;;;;;;;;;;;;;;10.32;100.00;102246.00;5052217;28;20045;-68
2022/12/31 09:46:24;;;;;;;36.50;18.90;;;;;;;10.29;100.00;102240.19;5052915;28;19920;-68
2022/12/31 09:49:23;;;;;;;38.30;18.85;;;;;;;10.54;100.00;102261.88;5053438;28;20052;-68
2022/12/31 09:52:22;;;;;;;40.13;18.02;;;;;;;10.71;100.00;102272.13;5063707;28;20045;-68
2022/12/31 09:54:58;;;;;;;36.00;18.33;;;;;;;10.73;100.00;102268.06;5032946;28;20057;-68
2022/12/31 09:57:38;;;;;;;43.15;19.40;;;;;;;10.87;100.00;102265.06;5045133;28;20045;-68
2022/12/31 10:00:22;;;;;;;40.35;19.27;;;;;;;10.72;100.00;102271.84;5054087;28;20582;-69
2022/12/31 10:03:25;;;;;;;37.05;17.77;;;;;;;10.72;100.00;102274.59;5053177;28;20048;-68
2022/12/31 10:06:19;;;;;;;33.95;17.95;;;;;;;10.96;100.00;102268.28;5052084;28;20060;-68
2022/12/31 10:09:32;;;;;;;36.70;18.35;;;;;;;10.66;100.00;102270.06;5049930;28;20052;-68
2022/12/31 10:12:19;;;;;;;44.88;19.08;;;;;;;10.59;100.00;102277.59;5052704;28;20492;-68
2022/12/31 10:14:56;;;;;;;38.67;17.40;;;;;;;10.87;100.00;102274.09;5053341;28;20155;-68
2022/12/31 10:17:49;;;;;;;37.70;18.05;;;;;;;10.84;100.00;102265.53;5053571;28;20072;-69
2022/12/31 10:20:46;;;;;;;37.35;19.40;;;;;;;10.92;100.00;102272.56;5052905;28;20696;-68
2022/12/31 10:23:30;;;;;;;43.80;19.58;;;;;;;10.98;100.00;102261.47;5052316;28;20052;-69
2022/12/31 10:26:13;;;;;;;47.88;20.67;;;;;;;11.09;100.00;102258.97;5052415;28;20472;-68
2022/12/31 10:29:12;;;;;;;42.23;21.43;;;;;;;11.08;100.00;102257.28;5033541;28;20051;-69
2022/12/31 10:31:40;;;;;;;43.90;22.73;;;;;;;11.14;100.00;102256.31;5036981;28;20041;-69
2022/12/31 10:34:20;;;;;;;36.35;20.63;;;;;;;11.23;100.00;102264.97;5051605;28;20055;-69
2022/12/31 10:36:56;;;;;;;42.03;22.20;;;;;;;11.38;100.00;102259.81;5053036;28;20080;-69
2022/12/31 10:39:53;;;;;;;44.70;21.10;;;;;;;11.25;100.00;102249.97;5047099;28;20049;-68
2022/12/31 10:42:35;;;;;;;34.88;19.80;;;;;;;11.39;100.00;102236.81;5045841;28;20044;-68
2022/12/31 10:45:09;;;;;;;33.35;19.63;;;;;;;11.47;100.00;102232.00;5049176;28;20404;-69
2022/12/31 10:48:12;;;;;;;36.42;20.00;;;;;;;11.40;100.00;102232.97;5047959;28;20404;-69
2022/12/31 10:51:28;;;;;;;36.22;19.65;;;;;;;11.61;100.00;102233.38;5046643;28;20053;-69
2022/12/31 10:54:32;;;;;;;37.83;18.92;;;;;;;11.57;100.00;102234.94;5046420;28;20057;-69
2022/12/31 10:57:26;;;;;;;33.40;18.80;;;;;;;11.48;100.00;102226.28;5046684;28;20041;-69
2022/12/31 11:00:20;;;;;;;33.65;18.35;;;;;;;11.51;100.00;102225.81;5048801;28;20045;-69
2022/12/31 11:03:04;;;;;;;34.38;19.08;;;;;;;11.64;100.00;102234.78;5041482;28;20045;-70
2022/12/31 11:06:07;;;;;;;33.15;18.02;;;;;;;11.64;100.00;102234.78;5042431;28;20042;-69
2022/12/31 11:09:01;;;;;;;34.53;17.73;;;;;;;11.62;100.00;102237.78;5048962;28;20068;-69
2022/12/31 11:11:59;;;;;;;29.25;15.30;;;;;;;11.54;100.00;102230.78;5037810;28;20048;-70
2022/12/31 11:14:51;;;;;;;27.05;15.35;;;;;;;11.47;100.00;102230.09;5048282;28;20033;-69
2022/12/31 11:17:25;;;;;;;26.70;13.93;;;;;;;11.73;100.00;102238.78;5041988;28;20052;-69
2022/12/31 11:20:23;;;;;;;30.52;15.30;;;;;;;11.77;100.00;102250.09;5032418;28;20062;-69
2022/12/31 11:23:17;;;;;;;30.23;15.60;;;;;;;11.77;100.00;102239.97;5049289;28;20049;-69
2022/12/31 11:26:12;;;;;;;27.13;15.38;;;;;;;11.79;100.00;102236.97;5038348;28;20045;-69
2022/12/31 11:28:47;;;;;;;26.02;15.35;;;;;;;12.08;100.00;102237.78;5032486;28;20041;-69
2022/12/31 11:31:37;;;;;;;26.27;14.65;;;;;;;12.05;99.78;102234.69;5032602;28;20037;-69
2022/12/31 11:34:36;;;;;;;25.98;15.23;;;;;;;11.97;100.00;102227.66;5045688;28;20052;-69
2022/12/31 11:37:29;;;;;;;26.58;16.02;;;;;;;11.92;99.33;102236.66;5041192;28;20060;-70
2022/12/31 11:40:34;;;;;;;27.27;15.38;;;;;;;11.90;100.00;102238.81;5051874;28;20480;-74
2022/12/31 11:43:19;;;;;;;;;;;;;;;11.98;100.00;102234.84;5048816;28;20041;-74
2022/12/31 11:46:22;;;;;;;31.55;16.73;;;;;;;11.97;100.00;102222.19;5050439;28;20414;-74
2022/12/31 11:49:27;;;;;;;29.10;16.58;;;;;;;11.88;100.00;102232.72;5046737;28;20048;-74
2022/12/31 11:52:14;;;;;;;29.05;15.70;;;;;;;11.82;100.00;102230.97;5047095;28;20053;-73
2022/12/31 11:55:26;;;;;;;29.80;16.15;;;;;;;11.92;100.00;102230.31;5048294;28;20049;-74
2022/12/31 11:58:01;;;;;;;24.17;14.10;;;;;;;11.93;100.00;102221.03;5038360;28;20049;-73
2022/12/31 12:00:31;;;;;;;29.27;16.13;;;;;;;12.01;100.00;102211.53;5044955;28;20045;-74
2022/12/31 12:03:05;;;;;;;29.75;15.73;;;;;;;11.97;100.00;102216.69;5045145;28;20411;-73
2022/12/31 12:05:35;;;;;;;25.20;14.82;;;;;;;11.88;100.00;102209.97;5041444;28;20389;-74
2022/12/31 12:08:05;;;;;;;25.73;14.63;;;;;;;11.89;100.00;102193.28;5037841;28;20141;-75
2022/12/31 12:10:51;;;;;;;29.08;15.38;;;;;;;11.87;100.00;102183.63;5049105;28;20393;-78
2022/12/31 12:13:22;;;;;;;27.73;16.13;;;;;;;12.01;100.00;102173.97;5046915;28;20053;-77